KILN

Wilmington Airpark

Wilmington, Ohio, USA
METAR KILN 231354Z AUTO 19011KT 8SM OVC005 12/12 A3020 RMK AO2 RAE39 CIG 004V009 SLP240 P0004 T01170117
Observed Flight Rules
Feb-23 @ 13:54 UTC (43 minutes ago) Instrument Flight Rules
Wind Visibility Clouds
190° at 11 knots 8 miles
  • Overcast at 500' AGL
Temperatures Readings Precipitation
Current 12°C / 54°F
Dewpoint 12°C / 54°F
Humidity 100%
Altimeter 30.2" Hg
Pressure 1024 hPa
Elevation 322
Current Rain 0.04
METAR KILN 231354Z AUTO 19011KT 8SM OVC005 12/12 A3020 RMK AO2 RAE39 CIG 004V009 SLP240 P0004 T01170117
Observed Flight Rules
Feb-23 @ 13:54 UTC
(43 minutes ago)
IFR
Wind Visibility
190° at 11 knots 8 miles
Clouds
  • Overcast at 500' AGL
Temperature Dewpoint
12°C / 54°F 12°C / 54°F
Humidity Altimeter Pressure
100% 30.2" Hg 1024 hPa
Current Rain
0.04